METAR Data

Data at: 1120 UTC 24 May 2022

METAR for:KMTP (Montauk Arpt, NY, US)
Text:KMTP 241054Z AUTO 06006KT 14/09 A3029 RMK AO1 SLP258 T01390094
Temperature: 13.9°C ( 57°F)
Dewpoint: 9.4°C ( 49°F) [RH = 74%]
Pressure (altimeter):30.29 inches Hg (1025.8 mb) [Sea level pressure: 1025.8 mb]
Winds:from the ENE (60 degrees) at 7 MPH (6 knots; 3.1 m/s)
QC Flag:automated observation with no human augmentation